Terminal Aerodrome Forecast
Issued by NWS Shreveport, LA

Home | Current Version | Previous Version | Text Only | Print | Product List | Glossary On
Versions: 1 2 3 4 5 6 7 8 9 10 11 12 13
968
FTUS44 KSHV 171259 AAA
TAFGGG
TAF AMD
KGGG 171259Z 1713/1812 VRB03KT 3SM BR OVC003
      TEMPO 1713/1715 1/4SM FG OVC001
     FM171600 VRB03KT P6SM OVC007
     FM171800 VRB04KT P6SM BKN015
     FM172000 VRB04KT P6SM SCT025 BKN250
     FM180000 VRB03KT P6SM BKN250
     FM180600 06004KT 5SM BR OVC015
     FM180900 06004KT 3SM BR OVC005=

USA.gov is the U.S. government's official web portal to all federal, state and local government web resources and services.